Terminal Aerodrome Forecast
Issued by NWS Paducah, KY

Home | Current Version | Previous Version | Text Only | Print | Product List | Glossary On
Versions: 1 2 3 4 5 6 7 8 9 10 11 12 13
443
FTUS43 KPAH 151334 AAB
TAFPAH
TAF AMD
KPAH 151334Z 1514/1612 20012G18KT 5SM -SHRA BR FEW010 SCT050 BKN070
     FM151500 32015G23KT P6SM BKN025
      TEMPO 1515/1517 3SM SHRA BR BKN020
     FM151900 34015G25KT P6SM SCT025
     FM160000 35008KT P6SM SKC
     FM160600 35004KT P6SM SKC=

USA.gov is the U.S. government's official web portal to all federal, state and local government web resources and services.